• Join FlightAware (Why Join?)
  • Login
  • US Flag 
10:21AM EDT


 

Airport Tracker/Info


-or-


 

Live Flight TrackerFlight Track Log ✈ UAL6012 ✈ 30-Apr-2013 ✈ KIAD - KTYS

Flight Track Log - Related Links

Times and Time Zones

All times are in EDT time to prevent confusion due to time zone crossing. See the UAL6012 flight status page for this flight to view local times or setup timezone preferences in your user account.

Time Position Orientation Groundspeed Altitude Reporting Facility
EDT Latitude Longitude Course Direction KTS MPH feet Rate Location/Type
05:55PM 38.8833 -77.4333 235° Southwest 190 219 2,600  Level Potomac TRACON
05:56PM 38.8167 -77.4667 201° Southwest 260 299 4,500 2,100 Climbing Potomac TRACON
05:57PM 38.7500 -77.5167 210° Southwest 262 302 6,900 2,280 Climbing Potomac TRACON
05:58PM 38.5616 -77.6705 210° Southwest  Level FlightAware Approximate
05:58PM 38.6833 -77.5667 210° Southwest 280 322 8,900  Level Potomac TRACON
05:59PM 38.4877 -77.7517 230° Southwest  Level FlightAware Approximate
06:00PM 38.4249 -77.8565 234° Southwest  Level FlightAware Approximate
06:00PM 38.6208 -77.6297 218° Southwest 282 325 10,600  Level Washington Center
06:01PM 38.3726 -77.9671 235° Southwest  Level FlightAware Approximate
06:01PM 38.5425 -77.6992 215° Southwest 308 354 11,600  Level Washington Center
06:02PM 38.4764 -77.7875 226° Southwest 332 382 12,900 1,260 Climbing Washington Center
06:03PM 38.4222 -77.8919 237° Southwest 354 407 14,200 1,320 Climbing Washington Center
06:04PM 38.3639 -78.0014 236° Southwest 365 420 15,600 1,260 Climbing Washington Center
06:05PM 38.3075 -78.1108 237° Southwest 375 432 16,700 1,140 Climbing Washington Center
06:06PM 38.2508 -78.2200 237° Southwest 375 432 17,900 900 Climbing Washington Center
06:07PM 38.1919 -78.3314 236° Southwest 375 432 18,600 840 Climbing Washington Center
06:08PM 38.1267 -78.4558 236° Southwest 380 437 19,600 1,080 Climbing Washington Center
06:09PM 38.0839 -78.5833 247° West 385 443 20,800 960 Climbing Washington Center
06:10PM 38.0408 -78.7136 247° West 399 459 21,600 840 Climbing Washington Center
06:11PM 37.9958 -78.8433 246° West 404 465 22,500 900 Climbing Washington Center
06:12PM 37.9506 -78.9731 246° West 409 471 23,500 1,020 Climbing Washington Center
06:13PM 37.9094 -79.0922 246° West 415 478 24,600 1,080 Climbing Washington Center
06:14PM 37.8517 -79.2158 239° Southwest 410 472 25,800 1,140 Climbing Washington Center
06:15PM 37.7917 -79.3367 238° Southwest 410 472 26,900 1,080 Climbing Washington Center
06:16PM 37.7269 -79.4672 238° Southwest 405 466 28,000 540 Climbing Washington Center
06:17PM 37.6647 -79.5847 236° Southwest 405 466 28,000  Level Washington Center
06:18PM 37.6067 -79.6969 237° Southwest 416 479 28,000  Level Washington Center
06:19PM 37.5350 -79.8397 238° Southwest 433 498 28,000  Level Washington Center
06:20PM 37.4764 -79.9594 238° Southwest 443 510 28,000  Level Washington Center
06:22PM 37.3103 -80.2817 237° Southwest 442 509 28,000  Level Atlanta Center
06:23PM 37.2411 -80.4100 236° Southwest 447 514 28,000  Level Atlanta Center
06:24PM 37.1681 -80.5539 238° Southwest 447 514 28,000  Level Atlanta Center
06:25PM 37.1031 -80.6817 237° Southwest 447 514 28,000  Level Atlanta Center
06:26PM 37.0461 -80.8194 243° Southwest 447 514 28,000  Level Atlanta Center
06:27PM 36.9978 -80.9592 247° West 442 509 28,000  Level Atlanta Center
06:28PM 36.9508 -81.0856 245° Southwest 442 509 28,000  Level Atlanta Center
06:29PM 36.9019 -81.2275 247° West 448 516 28,000 -240 Level Atlanta Center
06:30PM 36.8489 -81.3694 245° Southwest 448 516 27,600 -840 Descending Atlanta Center
06:31PM 36.7936 -81.5217 246° West 443 510 26,400 -1,080 Descending Atlanta Center
06:32PM 36.7486 -81.6631 248° West 443 510 25,500 -1,020 Descending Atlanta Center
06:33PM 36.6969 -81.8044 246° West 443 510 24,400 -780 Descending Atlanta Center
06:34PM 36.6431 -81.9431 244° Southwest 443 510 24,000 -240 Descending Atlanta Center
06:35PM 36.5933 -82.0839 246° West 443 510 24,000 -120 Level Atlanta Center
06:36PM 36.5414 -82.2275 246° West 448 516 23,800 -600 Descending Atlanta Center
06:37PM 36.4889 -82.3628 244° Southwest 443 510 22,800 -1,020 Descending Atlanta Center
06:38PM 36.4364 -82.4981 244° Southwest 443 510 21,800 -960 Descending Atlanta Center
06:39PM 36.3922 -82.6203 246° West 443 510 20,900 -960 Descending Atlanta Center
06:40PM 36.3436 -82.7525 245° Southwest 438 504 19,900 -1,020 Descending Atlanta Center
06:41PM 36.2928 -82.8872 245° Southwest 438 504 18,900 -1,020 Descending Atlanta Center
06:42PM 36.2397 -83.0167 243° Southwest 428 493 17,900 -1,020 Descending Atlanta Center
06:43PM 36.1928 -83.1433 245° Southwest 420 483 16,900 -1,020 Descending Atlanta Center
06:44PM 36.1456 -83.2700 245° Southwest 409 471 15,900 -1,080 Descending Atlanta Center
06:45PM 36.0983 -83.3964 245° Southwest 404 465 14,800 -1,560 Descending Atlanta Center
06:46PM 36.0531 -83.5147 245° Southwest 397 457 12,800 -1,620 Descending Atlanta Center
06:47PM 35.9992 -83.6256 239° Southwest 390 449 11,600 -1,200 Descending Atlanta Center
06:48PM 35.9369 -83.7053 226° Southwest 361 415 10,500 -1,260 Descending Atlanta Center
06:49PM 35.8828 -83.7747 226° Southwest 318 366 9,100 -1,620 Descending Atlanta Center
06:50PM 35.8350 -83.8389 227° Southwest 284 327 7,300 -1,860 Descending Atlanta Center
06:51PM 35.7828 -83.9056 226° Southwest 269 310 5,400 -1,440 Descending Atlanta Center
06:52PM 35.7328 -83.9697 226° Southwest 269 310 4,500 -900 Descending Atlanta Center
06:54PM 35.8000 -83.9833 219° Southwest  Level FlightAware Approximate
07:01PM 35.8110 -83.9940 219° Southwest  Level Estimated